Time;durP1;ratioP1;P1;durP2;ratioP2;P2;SDS_P1;SDS_P2;PMS_P1;PMS_P2;Temp;Humidity;BMP_temperature;BMP_pressure;BME280_temperature;BME280_humidity;BME280_pressure;Samples;Min_cycle;Max_cycle;Signal;HPM_P1;HPM_P2
2024/01/06 00:01:41;;;;;;;17.65;15.13;;;;;;;8.11;95.71;100077.00;3610041;39;20059;-66
2024/01/06 00:04:07;;;;;;;19.15;15.05;;;;;;;8.08;95.55;100079.88;3609108;39;20053;-65
2024/01/06 00:06:32;;;;;;;19.83;14.25;;;;;;;8.06;95.50;100087.16;3607632;39;20123;-65
2024/01/06 00:08:58;;;;;;;17.90;13.70;;;;;;;8.07;94.64;100088.00;3609335;39;20405;-66
2024/01/06 00:11:24;;;;;;;21.17;15.02;;;;;;;8.06;94.50;100097.00;3609899;39;20047;-65
2024/01/06 00:13:49;;;;;;;18.23;15.13;;;;;;;8.06;94.61;100097.88;3608844;39;20371;-65
2024/01/06 00:16:19;;;;;;;17.95;14.18;;;;;;;8.02;94.69;100099.00;3611409;39;20406;-65
2024/01/06 00:18:46;;;;;;;18.90;14.68;;;;;;;8.03;94.89;100108.75;3608446;39;20066;-65
2024/01/06 00:21:11;;;;;;;19.60;15.95;;;;;;;8.01;94.70;100107.97;3612613;39;20059;-65
2024/01/06 00:23:37;;;;;;;18.38;14.70;;;;;;;7.99;93.58;100107.25;3611411;39;20090;-66
2024/01/06 00:26:04;;;;;;;17.35;14.38;;;;;;;7.92;93.58;100111.22;3609717;39;20055;-65
2024/01/06 00:28:30;;;;;;;19.20;15.00;;;;;;;7.89;92.83;100112.28;3599608;39;20059;-65
2024/01/06 00:30:55;;;;;;;17.48;14.07;;;;;;;7.90;92.39;100126.53;3610635;39;20268;-64
2024/01/06 00:33:21;;;;;;;16.98;14.20;;;;;;;7.84;91.29;100126.91;3610386;39;20051;-65
2024/01/06 00:35:46;;;;;;;16.95;13.90;;;;;;;7.78;90.63;100119.28;3608059;39;20066;-65
2024/01/06 00:38:12;;;;;;;18.77;14.27;;;;;;;7.71;90.80;100121.47;3612925;39;20084;-65
2024/01/06 00:40:38;;;;;;;17.25;14.57;;;;;;;7.69;90.26;100126.03;3611844;39;20050;-65
2024/01/06 00:43:04;;;;;;;17.95;15.00;;;;;;;7.65;90.73;100128.03;3612066;39;20387;-65
2024/01/06 00:45:30;;;;;;;19.30;14.52;;;;;;;7.64;89.85;100128.13;3610597;39;20384;-65
2024/01/06 00:47:56;;;;;;;20.02;15.30;;;;;;;7.62;91.23;100133.59;3609720;39;20067;-65
2024/01/06 00:50:22;;;;;;;19.15;15.10;;;;;;;7.53;90.98;100115.41;3609457;39;20043;-64
2024/01/06 00:52:48;;;;;;;22.63;16.77;;;;;;;7.44;91.16;100099.91;3605736;39;20089;-65
2024/01/06 00:55:13;;;;;;;23.40;17.42;;;;;;;7.57;91.15;100126.78;3612802;39;20082;-64
2024/01/06 00:57:39;;;;;;;23.73;17.38;;;;;;;7.56;91.48;100136.63;3609566;39;20058;-65
2024/01/06 01:00:05;;;;;;;23.70;17.30;;;;;;;7.52;92.24;100132.41;3611230;39;20051;-64
2024/01/06 01:02:31;;;;;;;23.00;17.30;;;;;;;7.48;92.23;100138.03;3610198;39;20051;-65
2024/01/06 01:04:57;;;;;;;23.88;17.08;;;;;;;7.46;92.27;100138.13;3611330;39;20054;-65
2024/01/06 01:07:24;;;;;;;24.75;17.48;;;;;;;7.44;91.72;100140.03;3610978;39;20062;-65
2024/01/06 01:09:50;;;;;;;24.52;17.65;;;;;;;7.44;92.44;100138.22;3609401;39;20767;-64
2024/01/06 01:12:15;;;;;;;23.23;17.70;;;;;;;7.41;91.66;100138.41;3611451;39;20046;-65
2024/01/06 01:14:41;;;;;;;25.63;16.52;;;;;;;7.36;91.20;100148.53;3610009;39;20549;-65
2024/01/06 01:17:07;;;;;;;23.17;16.58;;;;;;;7.31;91.31;100147.06;3610446;39;20059;-65
2024/01/06 01:19:32;;;;;;;22.63;17.15;;;;;;;7.29;91.71;100146.28;3608302;39;20055;-65
2024/01/06 01:21:58;;;;;;;23.33;16.55;;;;;;;7.23;91.99;100155.56;3612172;39;20299;-64
2024/01/06 01:24:24;;;;;;;26.80;17.40;;;;;;;7.19;92.08;100154.00;3611183;39;20051;-65
2024/01/06 01:26:50;;;;;;;24.33;17.25;;;;;;;7.16;92.37;100149.69;3609950;39;20066;-65
2024/01/06 01:29:17;;;;;;;23.52;17.20;;;;;;;7.11;91.84;100156.25;3611467;39;20078;-65
2024/01/06 01:31:42;;;;;;;22.23;16.55;;;;;;;7.08;92.71;100159.97;3608752;39;20648;-65
2024/01/06 01:34:08;;;;;;;22.27;17.05;;;;;;;7.05;92.12;100167.31;3608012;39;20054;-65
2024/01/06 01:36:34;;;;;;;22.38;17.10;;;;;;;7.03;92.56;100170.06;3608745;39;20049;-64
2024/01/06 01:38:59;;;;;;;22.60;17.08;;;;;;;7.01;92.86;100171.97;3610800;39;20058;-65
2024/01/06 01:41:25;;;;;;;23.13;17.52;;;;;;;7.01;93.51;100174.66;3609210;39;20307;-65
2024/01/06 01:43:57;;;;;;;23.88;16.85;;;;;;;7.02;93.28;100176.34;3611707;39;20055;-65
2024/01/06 01:46:29;;;;;;;22.02;16.55;;;;;;;7.04;93.96;100181.59;3599016;39;20402;-65
2024/01/06 01:48:57;;;;;;;23.38;17.88;;;;;;;7.06;93.60;100185.91;3611397;39;20087;-65
2024/01/06 01:51:28;;;;;;;22.50;16.95;;;;;;;7.06;93.63;100185.91;3609172;39;20342;-65
2024/01/06 01:53:55;;;;;;;21.63;16.35;;;;;;;7.10;93.62;100189.25;3610810;39;20043;-65
2024/01/06 01:56:21;;;;;;;22.48;16.73;;;;;;;7.10;92.83;100197.28;3609480;39;20111;-65
2024/01/06 01:58:48;;;;;;;22.35;16.05;;;;;;;7.11;93.30;100193.69;3609657;39;20135;-65
2024/01/06 02:01:15;;;;;;;22.63;16.15;;;;;;;7.11;93.83;100194.53;3611560;39;20054;-65
2024/01/06 02:03:44;;;;;;;21.90;16.88;;;;;;;7.14;92.90;100198.84;3608546;39;20047;-65
2024/01/06 02:06:12;;;;;;;21.00;16.38;;;;;;;7.13;93.36;100189.94;3608090;39;20055;-65
2024/01/06 02:08:38;;;;;;;22.23;15.65;;;;;;;7.13;92.94;100192.63;3607920;39;20090;-65
2024/01/06 02:11:04;;;;;;;20.08;15.38;;;;;;;7.11;92.19;100189.19;3607750;39;20097;-65
2024/01/06 02:13:37;;;;;;;21.30;15.15;;;;;;;7.12;92.42;100200.75;3610210;39;20108;-65
2024/01/06 02:16:05;;;;;;;20.42;15.48;;;;;;;7.08;92.55;100194.72;3611378;39;20051;-65
2024/01/06 02:18:32;;;;;;;18.77;13.60;;;;;;;7.09;92.03;100216.94;3611357;39;20062;-65
2024/01/06 02:21:00;;;;;;;16.75;13.68;;;;;;;7.06;92.28;100217.97;3610420;39;20081;-65
2024/01/06 02:23:28;;;;;;;18.15;14.50;;;;;;;7.03;91.44;100228.84;3608569;39;20051;-65
2024/01/06 02:25:54;;;;;;;18.15;13.77;;;;;;;7.01;91.36;100224.53;3610404;39;20066;-65
2024/01/06 02:28:19;;;;;;;16.25;12.10;;;;;;;6.98;91.34;100230.94;3609482;39;20061;-66
2024/01/06 02:30:45;;;;;;;14.57;12.20;;;;;;;6.94;89.59;100232.88;3609384;39;20332;-65
2024/01/06 02:33:11;;;;;;;12.65;11.25;;;;;;;6.93;89.70;100238.34;3610984;39;20360;-65
2024/01/06 02:35:37;;;;;;;14.23;11.05;;;;;;;6.77;89.15;100237.47;3610758;39;20057;-65
2024/01/06 02:38:03;;;;;;;12.98;10.70;;;;;;;6.82;88.98;100240.72;3609894;39;20071;-65
2024/01/06 02:40:28;;;;;;;12.60;10.85;;;;;;;6.81;88.51;100252.38;3609448;39;20059;-65
2024/01/06 02:42:54;;;;;;;12.30;10.65;;;;;;;6.77;87.69;100258.84;3609220;39;20059;-65
2024/01/06 02:45:20;;;;;;;11.77;9.18;;;;;;;6.70;88.19;100253.84;3612291;39;20388;-65
2024/01/06 02:47:46;;;;;;;10.95;9.82;;;;;;;6.72;87.25;100265.31;3607301;39;20327;-65
2024/01/06 02:50:11;;;;;;;11.30;8.75;;;;;;;6.71;86.95;100266.22;3609991;39;20042;-65
2024/01/06 02:52:37;;;;;;;10.95;9.40;;;;;;;6.67;86.63;100267.34;3607752;39;20050;-64
2024/01/06 02:55:03;;;;;;;10.68;8.85;;;;;;;6.69;86.64;100278.81;3609661;39;20411;-64
2024/01/06 02:57:30;;;;;;;10.38;8.88;;;;;;;6.69;86.40;100278.81;3610864;39;20047;-65
2024/01/06 02:59:57;;;;;;;11.50;8.70;;;;;;;6.67;85.83;100283.38;3608396;39;20051;-65
2024/01/06 03:02:23;;;;;;;10.88;9.68;;;;;;;6.70;86.02;100301.06;3609014;39;20051;-65
2024/01/06 03:04:49;;;;;;;10.48;8.88;;;;;;;6.70;85.55;100301.91;3610445;39;21059;-65
2024/01/06 03:07:14;;;;;;;11.57;9.75;;;;;;;6.71;85.77;100308.97;3610842;39;20055;-65
2024/01/06 03:09:40;;;;;;;10.50;9.40;;;;;;;6.69;86.46;100310.88;3598040;39;20047;-65
2024/01/06 03:12:07;;;;;;;12.05;9.73;;;;;;;6.68;86.11;100311.81;3609624;39;20110;-65
2024/01/06 03:14:35;;;;;;;11.40;8.90;;;;;;;6.66;85.80;100311.03;3612513;39;20071;-65
2024/01/06 03:17:01;;;;;;;10.98;9.43;;;;;;;6.64;86.09;100314.72;3610382;39;20063;-65
2024/01/06 03:19:27;;;;;;;11.55;9.60;;;;;;;6.69;86.57;100324.22;3611976;39;20102;-66
2024/01/06 03:21:53;;;;;;;11.48;9.38;;;;;;;6.61;86.94;100314.91;3610423;39;20318;-66
2024/01/06 03:24:21;;;;;;;11.38;9.35;;;;;;;6.67;87.22;100322.59;3612794;39;20047;-65
2024/01/06 03:26:46;;;;;;;11.23;9.82;;;;;;;6.65;87.24;100329.81;3611652;39;20206;-65
2024/01/06 03:29:12;;;;;;;10.73;9.13;;;;;;;6.64;87.38;100328.94;3607588;39;20373;-65
2024/01/06 03:31:37;;;;;;;10.68;9.20;;;;;;;6.64;86.77;100333.44;3596993;39;20046;-65
2024/01/06 03:34:03;;;;;;;10.32;8.55;;;;;;;6.60;86.37;100338.06;3608543;39;20135;-65
2024/01/06 03:36:28;;;;;;;10.88;8.88;;;;;;;6.54;86.30;100330.38;3612220;39;20050;-65
2024/01/06 03:38:54;;;;;;;11.15;9.43;;;;;;;6.53;86.42;100336.66;3608767;39;20323;-66
2024/01/06 03:41:20;;;;;;;10.85;8.52;;;;;;;6.53;86.77;100341.13;3609164;39;20047;-65
2024/01/06 03:43:45;;;;;;;10.45;9.15;;;;;;;6.53;86.70;100347.34;3609108;39;20383;-65
2024/01/06 03:46:11;;;;;;;10.88;8.77;;;;;;;6.46;87.27;100344.13;3608281;39;20073;-66
2024/01/06 03:48:36;;;;;;;12.48;8.63;;;;;;;6.52;87.85;100356.28;3610303;39;20047;-65
2024/01/06 03:51:03;;;;;;;10.20;8.60;;;;;;;6.46;87.03;100352.13;3611809;39;20042;-66
2024/01/06 03:53:29;;;;;;;10.27;8.27;;;;;;;6.49;86.94;100357.31;3608349;39;20055;-66
2024/01/06 03:55:54;;;;;;;10.18;8.70;;;;;;;6.48;86.59;100360.09;3608638;39;20059;-65
2024/01/06 03:58:20;;;;;;;9.63;8.00;;;;;;;6.36;86.13;100339.38;3611075;39;20071;-65
2024/01/06 04:00:45;;;;;;;8.07;7.28;;;;;;;6.41;86.41;100358.69;3608089;39;20407;-65
2024/01/06 04:03:11;;;;;;;8.80;7.90;;;;;;;6.40;86.47;100360.47;3610245;39;20055;-65
2024/01/06 04:05:36;;;;;;;8.05;7.20;;;;;;;6.36;86.10;100366.06;3610688;39;20050;-65
2024/01/06 04:08:02;;;;;;;7.95;6.47;;;;;;;6.32;85.70;100365.34;3609430;39;20059;-65
2024/01/06 04:10:28;;;;;;;7.68;6.88;;;;;;;6.32;85.80;100369.84;3610713;39;20087;-65
2024/01/06 04:12:53;;;;;;;8.57;7.70;;;;;;;6.32;85.12;100364.50;3610865;39;20047;-65
2024/01/06 04:15:19;;;;;;;10.65;8.25;;;;;;;6.30;85.66;100375.22;3608325;39;20061;-65
2024/01/06 04:17:48;;;;;;;8.85;7.95;;;;;;;6.00;85.53;100313.66;3611079;39;20380;-65
2024/01/06 04:20:14;;;;;;;8.88;7.97;;;;;;;6.27;85.45;100367.38;3609889;39;20091;-65
2024/01/06 04:22:39;;;;;;;8.60;7.80;;;;;;;6.25;85.74;100375.47;3612814;39;20070;-65
2024/01/06 04:25:05;;;;;;;9.95;7.88;;;;;;;6.23;85.39;100376.50;3611010;39;20051;-65
2024/01/06 04:27:33;;;;;;;10.63;8.57;;;;;;;6.24;85.72;100383.56;3611475;39;20046;-65
2024/01/06 04:29:59;;;;;;;10.80;8.18;;;;;;;6.21;85.60;100378.38;3610359;39;20057;-65
2024/01/06 04:32:25;;;;;;;8.93;8.02;;;;;;;6.23;86.03;100381.84;3611623;39;20290;-65
2024/01/06 04:34:50;;;;;;;9.70;8.48;;;;;;;6.21;85.40;100381.91;3610728;39;20059;-65
2024/01/06 04:37:16;;;;;;;11.23;8.93;;;;;;;6.11;85.83;100372.63;3611361;39;20059;-65
2024/01/06 04:39:41;;;;;;;9.65;8.48;;;;;;;6.21;85.30;100394.38;3612566;39;20047;-65
2024/01/06 04:42:07;;;;;;;9.95;8.38;;;;;;;6.18;85.72;100398.06;3611929;39;20043;-65
2024/01/06 04:44:33;;;;;;;10.60;8.90;;;;;;;6.16;85.47;100399.97;3610066;39;20372;-65
2024/01/06 04:46:59;;;;;;;8.90;7.97;;;;;;;6.07;84.73;100402.25;3608147;39;20288;-65
2024/01/06 04:49:24;;;;;;;8.35;7.45;;;;;;;6.06;84.75;100406.72;3609484;39;20054;-65
2024/01/06 04:51:50;;;;;;;8.48;7.65;;;;;;;6.06;84.64;100412.06;3611107;39;20081;-64
2024/01/06 04:54:15;;;;;;;8.40;7.53;;;;;;;6.02;84.53;100410.47;3611052;39;20059;-64
2024/01/06 04:56:41;;;;;;;7.72;6.85;;;;;;;6.01;83.92;100414.06;3610488;39;20047;-64
2024/01/06 04:59:07;;;;;;;9.02;7.32;;;;;;;6.03;83.84;100412.19;3610252;39;20059;-64
2024/01/06 05:01:33;;;;;;;8.15;7.07;;;;;;;5.94;83.71;100412.66;3611166;39;20058;-64
2024/01/06 05:03:58;;;;;;;8.00;7.03;;;;;;;5.99;83.68;100421.28;3610082;39;20326;-64
2024/01/06 05:06:25;;;;;;;7.57;6.88;;;;;;;5.97;84.31;100429.38;3609036;39;21037;-64
2024/01/06 05:08:50;;;;;;;6.97;6.25;;;;;;;5.95;83.69;100430.38;3608824;39;20392;-64
2024/01/06 05:11:16;;;;;;;6.70;6.10;;;;;;;5.92;83.96;100433.16;3614302;39;20144;-64
2024/01/06 05:13:42;;;;;;;5.78;5.28;;;;;;;5.89;83.50;100431.50;3611890;39;20127;-64
2024/01/06 05:16:08;;;;;;;5.22;4.72;;;;;;;5.88;83.62;100439.59;3610154;39;20298;-64
2024/01/06 05:18:34;;;;;;;4.88;4.47;;;;;;;5.89;82.92;100438.66;3611014;39;20416;-64
2024/01/06 05:21:02;;;;;;;4.75;4.28;;;;;;;5.86;83.29;100442.31;3611554;39;20067;-64
2024/01/06 05:23:29;;;;;;;4.05;3.75;;;;;;;5.87;82.69;100451.19;3610300;39;20074;-64
2024/01/06 05:25:54;;;;;;;4.30;3.90;;;;;;;5.84;82.57;100454.03;3610397;39;20307;-64
2024/01/06 05:28:20;;;;;;;4.70;4.30;;;;;;;5.85;82.97;100450.41;3608800;39;20312;-64
2024/01/06 05:30:46;;;;;;;4.20;3.72;;;;;;;5.88;82.88;100444.94;3609573;39;20054;-64
2024/01/06 05:33:13;;;;;;;4.40;4.00;;;;;;;5.84;81.88;100457.56;3610379;39;20054;-64
2024/01/06 05:35:39;;;;;;;5.45;4.68;;;;;;;5.84;82.48;100454.88;3612548;39;20079;-64
2024/01/06 05:38:05;;;;;;;5.47;4.55;;;;;;;5.78;82.50;100450.72;3610516;39;20055;-64
2024/01/06 05:40:30;;;;;;;5.38;4.68;;;;;;;5.86;81.65;100465.47;3610792;39;20073;-64
2024/01/06 05:42:56;;;;;;;4.80;4.40;;;;;;;5.84;81.70;100465.56;3610462;39;20058;-64
2024/01/06 05:45:22;;;;;;;4.93;4.45;;;;;;;5.84;81.50;100470.88;3609106;39;20066;-64
2024/01/06 05:47:48;;;;;;;4.40;4.00;;;;;;;5.86;82.19;100474.34;3609633;39;20059;-63
2024/01/06 05:50:16;;;;;;;4.30;3.90;;;;;;;5.87;81.40;100477.84;3608148;39;20058;-64
2024/01/06 05:52:42;;;;;;;3.85;3.50;;;;;;;5.86;81.29;100485.00;3612962;39;20107;-64
2024/01/06 05:55:09;;;;;;;3.60;3.30;;;;;;;5.88;81.72;100484.94;3611709;39;20399;-64
2024/01/06 05:57:35;;;;;;;3.83;3.53;;;;;;;5.87;81.52;100485.84;3609716;39;20373;-64
2024/01/06 06:00:01;;;;;;;5.68;4.05;;;;;;;5.92;81.49;100489.19;3609606;39;20466;-64
2024/01/06 06:02:27;;;;;;;4.45;4.05;;;;;;;5.93;81.90;100491.81;3611029;39;20077;-64
2024/01/06 06:04:52;;;;;;;4.75;4.35;;;;;;;5.96;82.01;100481.00;3610468;39;20058;-64
2024/01/06 06:07:19;;;;;;;5.50;4.30;;;;;;;5.95;82.07;100494.41;3609884;39;20096;-64
2024/01/06 06:09:47;;;;;;;5.05;4.47;;;;;;;5.91;81.29;100492.81;3608893;39;20116;-64
2024/01/06 06:12:13;;;;;;;5.18;4.60;;;;;;;5.62;81.32;100460.38;3608959;39;20043;-64
2024/01/06 06:14:39;;;;;;;5.38;4.70;;;;;;;5.86;81.11;100505.47;3608939;39;20070;-65
2024/01/06 06:17:06;;;;;;;5.03;4.20;;;;;;;5.85;81.22;100503.75;3609720;39;20066;-64
2024/01/06 06:19:32;;;;;;;3.97;3.58;;;;;;;5.79;80.70;100512.91;3609340;39;20043;-64
2024/01/06 06:21:58;;;;;;;4.43;4.03;;;;;;;5.77;80.55;100521.00;3609763;39;20057;-64
2024/01/06 06:24:24;;;;;;;5.00;4.60;;;;;;;5.70;80.84;100518.66;3611728;39;20047;-64
2024/01/06 06:26:49;;;;;;;6.07;5.10;;;;;;;5.70;80.94;100529.34;3610545;39;20414;-64
2024/01/06 06:29:15;;;;;;;5.20;4.70;;;;;;;5.69;81.05;100525.81;3609845;39;20421;-64
2024/01/06 06:31:42;;;;;;;5.60;5.00;;;;;;;5.67;81.11;100537.47;3609409;39;20046;-64
2024/01/06 06:34:09;;;;;;;6.63;5.60;;;;;;;5.67;81.53;100541.00;3611108;39;20055;-66
2024/01/06 06:36:35;;;;;;;6.45;5.65;;;;;;;5.66;81.58;100541.94;3609438;39;20127;-66
2024/01/06 06:39:01;;;;;;;11.05;6.28;;;;;;;5.67;81.72;100542.81;3610428;39;20087;-66
2024/01/06 06:41:26;;;;;;;6.60;5.93;;;;;;;5.68;81.91;100548.09;3614032;39;20062;-66
2024/01/06 06:43:52;;;;;;;7.65;5.70;;;;;;;5.67;82.13;100548.16;3611881;39;20342;-66
2024/01/06 06:46:17;;;;;;;6.70;5.68;;;;;;;5.66;81.86;100554.44;3610437;39;20073;-66
2024/01/06 06:48:43;;;;;;;5.88;5.35;;;;;;;5.64;81.87;100558.94;3612269;39;20276;-66
2024/01/06 06:51:10;;;;;;;7.13;5.53;;;;;;;5.64;81.85;100554.47;3612312;39;20047;-64
2024/01/06 06:53:36;;;;;;;7.30;5.18;;;;;;;5.64;82.14;100567.81;3612412;39;20046;-64
2024/01/06 06:56:02;;;;;;;6.43;5.75;;;;;;;5.68;81.96;100571.22;3609089;39;20062;-64
2024/01/06 06:58:27;;;;;;;5.82;5.32;;;;;;;5.67;82.17;100573.00;3612612;39;20051;-64
2024/01/06 07:00:54;;;;;;;5.53;5.03;;;;;;;5.65;81.64;100579.38;3612010;39;20043;-64
2024/01/06 07:03:20;;;;;;;6.22;5.43;;;;;;;5.69;81.62;100586.28;3611173;39;20059;-64
2024/01/06 07:05:45;;;;;;;6.93;5.20;;;;;;;5.70;81.37;100594.19;3612336;39;20047;-64
2024/01/06 07:08:13;;;;;;;6.25;5.03;;;;;;;5.71;81.24;100592.41;3610660;39;20051;-64
2024/01/06 07:10:38;;;;;;;6.25;5.65;;;;;;;5.73;81.77;100591.41;3611140;39;20059;-64
2024/01/06 07:13:05;;;;;;;6.65;5.53;;;;;;;5.69;81.59;100605.81;3610128;39;20063;-64
2024/01/06 07:15:30;;;;;;;6.45;5.70;;;;;;;5.68;82.18;100606.75;3613453;39;20051;-64
2024/01/06 07:17:56;;;;;;;6.15;5.63;;;;;;;5.69;82.23;100608.47;3610544;39;20071;-63
2024/01/06 07:20:22;;;;;;;6.68;5.93;;;;;;;5.66;82.10;100615.75;3610479;39;20066;-65
2024/01/06 07:22:47;;;;;;;8.32;6.50;;;;;;;5.65;82.70;100617.56;3610708;39;20104;-64
2024/01/06 07:25:13;;;;;;;9.07;6.50;;;;;;;5.60;83.22;100614.22;3609612;39;20081;-64
2024/01/06 07:27:39;;;;;;;7.57;6.35;;;;;;;5.61;83.08;100623.94;3609005;39;20062;-64
2024/01/06 07:30:08;;;;;;;8.73;6.68;;;;;;;5.28;83.44;100571.19;3605732;39;20082;-63
2024/01/06 07:32:33;;;;;;;8.63;6.50;;;;;;;5.62;84.46;100623.03;3609467;39;20123;-64
2024/01/06 07:34:59;;;;;;;7.78;6.97;;;;;;;5.63;84.81;100622.09;3610927;39;20299;-64
2024/01/06 07:37:25;;;;;;;8.50;7.30;;;;;;;5.63;84.61;100622.09;3606371;39;20051;-64
2024/01/06 07:39:51;;;;;;;9.70;7.30;;;;;;;5.61;84.27;100629.28;3611130;39;20472;-64
2024/01/06 07:42:17;;;;;;;10.00;8.45;;;;;;;5.59;84.64;100631.16;3610433;39;20056;-64
2024/01/06 07:44:44;;;;;;;10.15;7.95;;;;;;;5.58;85.32;100638.31;3610585;39;20051;-64
2024/01/06 07:47:10;;;;;;;9.95;7.82;;;;;;;5.57;85.35;100641.03;3607198;39;20051;-64
2024/01/06 07:49:36;;;;;;;10.40;8.23;;;;;;;5.58;85.35;100646.31;3609341;39;20054;-64
2024/01/06 07:52:02;;;;;;;9.68;8.40;;;;;;;5.59;85.26;100647.16;3611220;39;20074;-64
2024/01/06 07:54:28;;;;;;;10.05;8.68;;;;;;;5.58;85.28;100651.63;3610335;39;22270;-64
2024/01/06 07:56:53;;;;;;;9.82;7.85;;;;;;;5.59;85.13;100652.50;3610665;39;20368;-64
2024/01/06 07:59:19;;;;;;;12.93;8.90;;;;;;;5.60;85.37;100654.22;3607444;39;20051;-64
2024/01/06 08:01:45;;;;;;;12.38;9.02;;;;;;;5.62;84.80;100657.69;3610989;39;20302;-64
2024/01/06 08:04:10;;;;;;;10.55;8.45;;;;;;;5.61;85.17;100666.59;3609366;39;20055;-64
2024/01/06 08:06:36;;;;;;;12.48;8.90;;;;;;;5.60;85.12;100675.56;3612802;39;20058;-64
2024/01/06 08:09:03;;;;;;;10.63;8.35;;;;;;;5.59;84.75;100671.16;3610326;39;20320;-66
2024/01/06 08:11:29;;;;;;;12.00;8.50;;;;;;;5.60;85.32;100675.56;3601131;39;20054;-66
2024/01/06 08:13:55;;;;;;;9.65;8.25;;;;;;;5.51;85.42;100670.63;3612417;39;20091;-65
2024/01/06 08:16:21;;;;;;;11.43;8.57;;;;;;;5.58;86.45;100693.41;3611793;39;20051;-65
2024/01/06 08:18:47;;;;;;;9.43;8.25;;;;;;;5.58;85.89;100696.06;3609966;39;20070;-66
2024/01/06 08:21:12;;;;;;;9.77;8.20;;;;;;;5.55;86.22;100698.88;3612639;39;20055;-66
2024/01/06 08:23:38;;;;;;;10.63;7.95;;;;;;;5.56;86.44;100700.63;3612360;39;20055;-66
2024/01/06 08:26:06;;;;;;;9.20;7.80;;;;;;;5.15;86.56;100631.28;3611365;39;20046;-65
2024/01/06 08:28:31;;;;;;;10.20;7.97;;;;;;;5.56;86.48;100712.16;3611205;39;20090;-65
2024/01/06 08:30:57;;;;;;;9.50;8.00;;;;;;;5.57;86.59;100707.69;3611975;39;20049;-66
2024/01/06 08:33:22;;;;;;;10.50;8.57;;;;;;;5.57;86.56;100713.00;3611928;39;20269;-66
2024/01/06 08:35:48;;;;;;;10.30;8.23;;;;;;;5.57;86.35;100713.88;3612442;39;20058;-66
2024/01/06 08:38:14;;;;;;;10.18;8.25;;;;;;;5.56;86.65;100716.63;3611444;39;20406;-66
2024/01/06 08:40:39;;;;;;;10.38;8.82;;;;;;;5.54;86.72;100723.81;3610218;39;20047;-66
2024/01/06 08:43:05;;;;;;;11.50;9.05;;;;;;;5.56;86.57;100725.47;3611541;39;20058;-66
2024/01/06 08:45:31;;;;;;;10.63;8.73;;;;;;;5.42;86.94;100714.53;3612059;39;20068;-66
2024/01/06 08:47:56;;;;;;;12.55;9.05;;;;;;;5.54;87.63;100739.81;3609137;39;20055;-65
2024/01/06 08:50:22;;;;;;;10.35;9.25;;;;;;;5.57;88.08;100750.34;3612412;39;20380;-64
2024/01/06 08:52:48;;;;;;;13.25;9.50;;;;;;;5.56;88.60;100749.47;3612298;39;20298;-64
2024/01/06 08:55:13;;;;;;;12.63;9.38;;;;;;;5.55;88.40;100753.09;3610784;39;20302;-64
2024/01/06 08:57:39;;;;;;;14.60;9.25;;;;;;;5.51;88.80;100750.59;3612411;39;20062;-64
2024/01/06 09:00:05;;;;;;;10.88;8.90;;;;;;;5.51;89.09;100758.59;3610630;39;20058;-64
2024/01/06 09:02:33;;;;;;;12.65;9.40;;;;;;;5.49;88.94;100763.13;3609700;39;20311;-64
2024/01/06 09:04:59;;;;;;;13.52;10.15;;;;;;;5.48;89.06;100758.72;3610279;39;20043;-62
2024/01/06 09:07:25;;;;;;;15.38;9.73;;;;;;;5.43;88.93;100772.25;3612146;39;20057;-63
2024/01/06 09:09:51;;;;;;;11.90;9.55;;;;;;;5.42;89.03;100773.16;3610825;39;20118;-63
2024/01/06 09:12:17;;;;;;;13.98;9.23;;;;;;;5.43;89.51;100777.59;3613600;39;20055;-62
2024/01/06 09:14:42;;;;;;;11.30;9.38;;;;;;;5.44;88.91;100775.78;3611779;39;20061;-62
2024/01/06 09:17:08;;;;;;;11.02;9.10;;;;;;;5.43;89.56;100784.72;3608123;39;20338;-63
2024/01/06 09:19:34;;;;;;;12.60;9.30;;;;;;;5.45;89.47;100783.69;3609813;39;20164;-63
2024/01/06 09:21:59;;;;;;;11.32;9.20;;;;;;;5.45;89.11;100782.84;3610982;39;20081;-64
2024/01/06 09:24:25;;;;;;;10.75;9.07;;;;;;;5.46;88.58;100789.94;3610757;39;20062;-63
2024/01/06 09:26:51;;;;;;;12.02;8.68;;;;;;;5.42;87.92;100798.97;3611558;39;20395;-64
2024/01/06 09:29:17;;;;;;;11.32;9.10;;;;;;;5.44;88.40;100799.78;3609407;39;20280;-64
2024/01/06 09:31:43;;;;;;;10.05;8.73;;;;;;;5.42;87.53;100798.97;3612183;39;20057;-63
2024/01/06 09:34:12;;;;;;;12.43;8.70;;;;;;;5.43;87.32;100806.03;3611444;39;20063;-64
2024/01/06 09:36:37;;;;;;;10.40;8.80;;;;;;;5.43;87.14;100806.03;3609617;39;20055;-63
2024/01/06 09:39:04;;;;;;;10.23;8.68;;;;;;;5.45;86.79;100812.16;3610390;39;20070;-64
2024/01/06 09:41:31;;;;;;;10.63;9.45;;;;;;;5.46;86.50;100811.25;3612122;39;20078;-63
2024/01/06 09:43:57;;;;;;;10.77;8.13;;;;;;;5.44;85.41;100823.78;3611033;39;20130;-64
2024/01/06 09:46:30;;;;;;;9.18;8.23;;;;;;;5.44;85.60;100829.09;3609813;39;20051;-63
2024/01/06 09:48:57;;;;;;;9.15;8.15;;;;;;;5.45;85.32;100829.03;3611633;39;20059;-64
2024/01/06 09:51:25;;;;;;;10.63;8.60;;;;;;;5.50;85.40;100832.38;3613059;39;20580;-64
2024/01/06 09:54:00;;;;;;;12.10;8.95;;;;;;;5.53;84.96;100840.25;3600495;39;20376;-63
2024/01/06 09:56:29;;;;;;;8.55;7.70;;;;;;;5.53;84.43;100847.38;3611942;39;20050;-64
2024/01/06 09:58:56;;;;;;;9.10;7.65;;;;;;;5.55;84.16;100851.75;3611624;39;20091;-63
2024/01/06 10:01:22;;;;;;;8.63;7.72;;;;;;;5.55;84.12;100849.06;3610633;39;20043;-64
2024/01/06 10:03:48;;;;;;;8.00;7.10;;;;;;;5.47;83.93;100840.50;3612053;39;20068;-63
2024/01/06 10:06:15;;;;;;;9.95;7.75;;;;;;;5.54;83.66;100857.13;3611908;39;20058;-63
2024/01/06 10:08:49;;;;;;;9.52;7.30;;;;;;;5.55;83.89;100865.06;3609678;39;20062;-63
2024/01/06 10:11:14;;;;;;;8.30;7.35;;;;;;;4.79;82.75;100737.53;3608965;39;20139;-64
2024/01/06 10:13:40;;;;;;;11.40;7.40;;;;;;;5.50;83.46;100871.50;3613231;39;20051;-64
2024/01/06 10:16:07;;;;;;;8.77;7.72;;;;;;;5.48;83.42;100870.69;3612721;39;20302;-64
2024/01/06 10:18:35;;;;;;;8.18;7.28;;;;;;;5.46;83.67;100877.91;3610552;39;20047;-65
2024/01/06 10:21:05;;;;;;;9.30;7.63;;;;;;;5.47;84.30;100877.81;3602540;39;20045;-65
2024/01/06 10:23:32;;;;;;;8.70;7.72;;;;;;;5.51;84.61;100879.44;3614032;39;20057;-65
2024/01/06 10:25:59;;;;;;;9.68;8.13;;;;;;;5.55;84.19;100883.72;3609629;39;20059;-66
2024/01/06 10:28:25;;;;;;;9.52;7.45;;;;;;;5.56;84.24;100871.25;3611947;39;20059;-66
2024/01/06 10:30:56;;;;;;;9.75;7.25;;;;;;;5.55;83.52;100880.16;3612629;39;20063;-65
2024/01/06 10:33:24;;;;;;;9.95;6.97;;;;;;;5.53;83.37;100876.72;3613103;39;20035;-66
2024/01/06 10:35:50;;;;;;;9.95;7.72;;;;;;;5.50;82.92;100877.69;3601155;39;20062;-66
2024/01/06 10:38:16;;;;;;;9.10;7.53;;;;;;;5.49;82.97;100886.63;3611271;39;20063;-66
2024/01/06 10:41:06;;;;;;;11.70;7.85;;;;;;;5.48;83.21;100884.03;3612184;39;20067;-65
2024/01/06 10:43:37;;;;;;;10.57;8.07;;;;;;;5.51;83.61;100889.22;3611968;39;20065;-65
2024/01/06 10:46:04;;;;;;;8.35;7.43;;;;;;;5.32;83.41;100857.97;3612648;39;20046;-65
2024/01/06 10:48:35;;;;;;;8.82;7.70;;;;;;;5.52;83.19;100891.00;3611944;39;20069;-65
2024/01/06 10:51:07;;;;;;;9.15;7.35;;;;;;;5.42;83.21;100885.13;3613521;39;20039;-65
2024/01/06 10:53:33;;;;;;;11.82;8.40;;;;;;;5.48;83.79;100897.34;3601246;39;20047;-66
2024/01/06 10:56:01;;;;;;;11.05;8.15;;;;;;;5.52;83.66;100896.31;3609629;39;20108;-63
2024/01/06 10:58:29;;;;;;;11.23;8.43;;;;;;;5.47;83.83;100887.63;3612248;39;20127;-64
2024/01/06 11:00:57;;;;;;;9.30;8.27;;;;;;;5.54;83.87;100894.44;3602085;39;20047;-64
2024/01/06 11:03:24;;;;;;;8.82;7.70;;;;;;;5.55;83.37;100902.41;3612513;39;20057;-64
2024/01/06 11:05:50;;;;;;;10.60;8.13;;;;;;;5.59;83.60;100903.13;3611824;39;20059;-64
2024/01/06 11:08:18;;;;;;;10.65;7.90;;;;;;;5.61;83.50;100905.72;3611985;39;20082;-64
2024/01/06 11:10:45;;;;;;;8.02;7.03;;;;;;;5.65;82.94;100904.69;3610811;39;20050;-64
2024/01/06 11:13:20;;;;;;;8.38;6.95;;;;;;;5.62;81.98;100905.69;3612487;39;20383;-64
2024/01/06 11:15:52;;;;;;;10.32;6.88;;;;;;;5.61;81.39;100913.72;3612044;39;20115;-64
2024/01/06 11:18:38;;;;;;;8.73;7.07;;;;;;;5.60;81.82;100915.53;3612025;39;20067;-64
2024/01/06 11:21:24;;;;;;;8.40;7.28;;;;;;;5.63;82.24;100909.22;3612040;39;20062;-64
2024/01/06 11:24:21;;;;;;;10.00;6.90;;;;;;;5.65;82.25;100912.69;3611982;39;20059;-64